sensor_id;sensor_type;location;lat;lon;timestamp;temperature;humidity
17701;DHT22;8969;48.576;12.580;2023-02-26T00:01:44;1.10;99.90
17701;DHT22;8969;48.576;12.580;2023-02-26T00:04:13;1.10;99.90
17701;DHT22;8969;48.576;12.580;2023-02-26T00:06:42;1.10;99.90
17701;DHT22;8969;48.576;12.580;2023-02-26T00:09:23;1.10;99.90
17701;DHT22;8969;48.576;12.580;2023-02-26T00:11:52;1.00;99.90
17701;DHT22;8969;48.576;12.580;2023-02-26T00:14:22;1.00;99.90
17701;DHT22;8969;48.576;12.580;2023-02-26T00:16:57;1.00;99.90
17701;DHT22;8969;48.576;12.580;2023-02-26T00:19:34;0.90;99.90
17701;DHT22;8969;48.576;12.580;2023-02-26T00:22:03;0.90;99.90
17701;DHT22;8969;48.576;12.580;2023-02-26T00:24:32;0.90;99.90
17701;DHT22;8969;48.576;12.580;2023-02-26T00:27:01;0.80;99.90
17701;DHT22;8969;48.576;12.580;2023-02-26T00:29:29;0.70;99.90
17701;DHT22;8969;48.576;12.580;2023-02-26T00:31:58;0.70;99.90
17701;DHT22;8969;48.576;12.580;2023-02-26T00:34:27;0.70;99.90
17701;DHT22;8969;48.576;12.580;2023-02-26T00:37:07;0.70;99.90
17701;DHT22;8969;48.576;12.580;2023-02-26T00:39:54;0.70;99.90
17701;DHT22;8969;48.576;12.580;2023-02-26T00:42:25;0.60;99.90
17701;DHT22;8969;48.576;12.580;2023-02-26T00:44:54;0.60;99.90
17701;DHT22;8969;48.576;12.580;2023-02-26T00:47:26;0.60;99.90
17701;DHT22;8969;48.576;12.580;2023-02-26T00:50:04;0.60;99.90
17701;DHT22;8969;48.576;12.580;2023-02-26T00:52:39;0.60;99.90
17701;DHT22;8969;48.576;12.580;2023-02-26T00:55:11;0.50;99.90
17701;DHT22;8969;48.576;12.580;2023-02-26T00:57:39;0.50;99.90
17701;DHT22;8969;48.576;12.580;2023-02-26T01:00:09;0.50;99.90
17701;DHT22;8969;48.576;12.580;2023-02-26T01:02:38;0.50;99.90
17701;DHT22;8969;48.576;12.580;2023-02-26T01:05:08;0.50;99.90
17701;DHT22;8969;48.576;12.580;2023-02-26T01:07:39;0.40;99.90
17701;DHT22;8969;48.576;12.580;2023-02-26T01:10:12;0.40;99.90
17701;DHT22;8969;48.576;12.580;2023-02-26T01:12:41;0.40;99.90
17701;DHT22;8969;48.576;12.580;2023-02-26T01:15:10;0.30;99.90
17701;DHT22;8969;48.576;12.580;2023-02-26T01:17:44;0.40;99.90
17701;DHT22;8969;48.576;12.580;2023-02-26T01:20:19;0.40;99.90
17701;DHT22;8969;48.576;12.580;2023-02-26T01:22:53;0.40;99.90
17701;DHT22;8969;48.576;12.580;2023-02-26T01:25:27;0.40;99.90
17701;DHT22;8969;48.576;12.580;2023-02-26T01:27:56;0.30;99.90
17701;DHT22;8969;48.576;12.580;2023-02-26T01:30:25;0.40;99.90
17701;DHT22;8969;48.576;12.580;2023-02-26T01:32:58;0.40;99.90
17701;DHT22;8969;48.576;12.580;2023-02-26T01:35:37;0.30;99.90
17701;DHT22;8969;48.576;12.580;2023-02-26T01:38:16;0.30;99.90
17701;DHT22;8969;48.576;12.580;2023-02-26T01:41:12;0.20;99.90
17701;DHT22;8969;48.576;12.580;2023-02-26T01:43:48;0.30;99.90
17701;DHT22;8969;48.576;12.580;2023-02-26T01:46:22;0.20;99.90
17701;DHT22;8969;48.576;12.580;2023-02-26T01:48:54;0.20;99.90
17701;DHT22;8969;48.576;12.580;2023-02-26T01:51:45;0.20;99.90
17701;DHT22;8969;48.576;12.580;2023-02-26T01:54:16;0.20;99.90
17701;DHT22;8969;48.576;12.580;2023-02-26T01:56:50;0.20;99.90
17701;DHT22;8969;48.576;12.580;2023-02-26T01:59:20;0.20;99.90
17701;DHT22;8969;48.576;12.580;2023-02-26T02:01:52;0.20;99.90
17701;DHT22;8969;48.576;12.580;2023-02-26T02:04:21;0.20;99.90
17701;DHT22;8969;48.576;12.580;2023-02-26T02:06:49;0.10;99.90
17701;DHT22;8969;48.576;12.580;2023-02-26T02:09:18;0.10;99.90
17701;DHT22;8969;48.576;12.580;2023-02-26T02:14:45;0.00;99.90
17701;DHT22;8969;48.576;12.580;2023-02-26T02:17:31;0.10;99.90
17701;DHT22;8969;48.576;12.580;2023-02-26T02:20:32;0.10;99.90
17701;DHT22;8969;48.576;12.580;2023-02-26T02:23:09;0.00;99.90
17701;DHT22;8969;48.576;12.580;2023-02-26T02:26:15;0.00;99.90
17701;DHT22;8969;48.576;12.580;2023-02-26T02:29:07;0.00;99.90
17701;DHT22;8969;48.576;12.580;2023-02-26T02:31:49;0.00;99.90
17701;DHT22;8969;48.576;12.580;2023-02-26T02:34:22;0.00;99.90
17701;DHT22;8969;48.576;12.580;2023-02-26T02:36:55;0.00;99.90
17701;DHT22;8969;48.576;12.580;2023-02-26T02:43:40;0.00;99.90
17701;DHT22;8969;48.576;12.580;2023-02-26T02:46:13;-0.10;99.90
17701;DHT22;8969;48.576;12.580;2023-02-26T02:48:46;-0.10;99.90
17701;DHT22;8969;48.576;12.580;2023-02-26T02:51:20;-0.10;99.90
17701;DHT22;8969;48.576;12.580;2023-02-26T02:53:53;-0.10;99.90
17701;DHT22;8969;48.576;12.580;2023-02-26T02:56:27;-0.10;99.90
17701;DHT22;8969;48.576;12.580;2023-02-26T02:58:59;-0.10;99.90
17701;DHT22;8969;48.576;12.580;2023-02-26T03:01:30;-0.10;99.90
17701;DHT22;8969;48.576;12.580;2023-02-26T03:04:05;-0.10;99.90
17701;DHT22;8969;48.576;12.580;2023-02-26T03:06:36;-0.10;99.90
17701;DHT22;8969;48.576;12.580;2023-02-26T03:09:07;-0.10;99.90
17701;DHT22;8969;48.576;12.580;2023-02-26T03:11:39;-0.20;99.90
17701;DHT22;8969;48.576;12.580;2023-02-26T03:14:09;-0.20;99.90
17701;DHT22;8969;48.576;12.580;2023-02-26T03:16:48;-0.20;99.90
17701;DHT22;8969;48.576;12.580;2023-02-26T03:19:22;-0.10;99.90
17701;DHT22;8969;48.576;12.580;2023-02-26T03:21:59;-0.10;99.90
17701;DHT22;8969;48.576;12.580;2023-02-26T03:24:51;-0.20;99.90
17701;DHT22;8969;48.576;12.580;2023-02-26T03:27:27;-0.10;99.90
17701;DHT22;8969;48.576;12.580;2023-02-26T03:30:02;-0.10;99.90
17701;DHT22;8969;48.576;12.580;2023-02-26T03:32:45;-0.10;99.90
17701;DHT22;8969;48.576;12.580;2023-02-26T03:35:26;-0.10;99.90
17701;DHT22;8969;48.576;12.580;2023-02-26T03:37:57;-0.20;99.90
17701;DHT22;8969;48.576;12.580;2023-02-26T03:40:34;-0.20;99.90
17701;DHT22;8969;48.576;12.580;2023-02-26T03:43:07;-0.20;99.90
17701;DHT22;8969;48.576;12.580;2023-02-26T03:45:38;-0.30;99.90
17701;DHT22;8969;48.576;12.580;2023-02-26T03:48:08;-0.30;99.90
17701;DHT22;8969;48.576;12.580;2023-02-26T03:50:42;-0.30;99.90
17701;DHT22;8969;48.576;12.580;2023-02-26T03:53:36;-0.30;99.90
17701;DHT22;8969;48.576;12.580;2023-02-26T03:56:16;-0.30;99.90
17701;DHT22;8969;48.576;12.580;2023-02-26T03:59:04;-0.30;99.90
17701;DHT22;8969;48.576;12.580;2023-02-26T04:01:41;-0.40;99.90
17701;DHT22;8969;48.576;12.580;2023-02-26T04:04:14;-0.40;99.90
17701;DHT22;8969;48.576;12.580;2023-02-26T04:06:46;-0.40;99.90
17701;DHT22;8969;48.576;12.580;2023-02-26T04:09:15;-0.50;99.90
17701;DHT22;8969;48.576;12.580;2023-02-26T04:11:44;-0.50;99.90
17701;DHT22;8969;48.576;12.580;2023-02-26T04:14:13;-0.50;99.90
17701;DHT22;8969;48.576;12.580;2023-02-26T04:16:43;-0.60;99.90
17701;DHT22;8969;48.576;12.580;2023-02-26T04:19:12;-0.60;99.90
17701;DHT22;8969;48.576;12.580;2023-02-26T04:21:41;-0.50;99.90
17701;DHT22;8969;48.576;12.580;2023-02-26T04:24:13;-0.60;99.90
17701;DHT22;8969;48.576;12.580;2023-02-26T04:26:43;-0.60;99.90
17701;DHT22;8969;48.576;12.580;2023-02-26T04:29:11;-0.70;99.90
17701;DHT22;8969;48.576;12.580;2023-02-26T04:31:39;-0.70;99.90
17701;DHT22;8969;48.576;12.580;2023-02-26T04:34:09;-0.70;99.90
17701;DHT22;8969;48.576;12.580;2023-02-26T04:36:38;-0.60;99.90
17701;DHT22;8969;48.576;12.580;2023-02-26T04:39:07;-0.70;99.90
17701;DHT22;8969;48.576;12.580;2023-02-26T04:41:38;-0.70;99.90
17701;DHT22;8969;48.576;12.580;2023-02-26T04:44:07;-0.70;99.90
17701;DHT22;8969;48.576;12.580;2023-02-26T04:46:39;-0.70;99.90
17701;DHT22;8969;48.576;12.580;2023-02-26T04:49:08;-0.70;99.90
17701;DHT22;8969;48.576;12.580;2023-02-26T04:51:42;-0.70;99.90
17701;DHT22;8969;48.576;12.580;2023-02-26T04:54:13;-0.80;99.90
17701;DHT22;8969;48.576;12.580;2023-02-26T04:56:42;-1.00;99.90
17701;DHT22;8969;48.576;12.580;2023-02-26T04:59:11;-1.00;99.90
17701;DHT22;8969;48.576;12.580;2023-02-26T05:01:39;-0.90;99.90
17701;DHT22;8969;48.576;12.580;2023-02-26T05:04:07;-0.90;99.90
17701;DHT22;8969;48.576;12.580;2023-02-26T05:06:37;-0.90;99.90
17701;DHT22;8969;48.576;12.580;2023-02-26T05:09:05;-1.10;99.90
17701;DHT22;8969;48.576;12.580;2023-02-26T05:11:33;-1.00;99.90
17701;DHT22;8969;48.576;12.580;2023-02-26T05:14:03;-1.00;99.90
17701;DHT22;8969;48.576;12.580;2023-02-26T05:16:31;-1.10;99.90
17701;DHT22;8969;48.576;12.580;2023-02-26T05:19:00;-1.10;99.90
17701;DHT22;8969;48.576;12.580;2023-02-26T05:21:28;-1.10;99.90
17701;DHT22;8969;48.576;12.580;2023-02-26T05:23:57;-1.10;99.90
17701;DHT22;8969;48.576;12.580;2023-02-26T05:26:25;-1.10;99.90
17701;DHT22;8969;48.576;12.580;2023-02-26T05:28:54;-1.20;99.90
17701;DHT22;8969;48.576;12.580;2023-02-26T05:31:23;-1.20;99.90
17701;DHT22;8969;48.576;12.580;2023-02-26T05:33:52;-1.20;99.90
17701;DHT22;8969;48.576;12.580;2023-02-26T05:36:20;-1.10;99.90
17701;DHT22;8969;48.576;12.580;2023-02-26T05:38:49;-1.10;99.90
17701;DHT22;8969;48.576;12.580;2023-02-26T05:41:17;-1.20;99.90
17701;DHT22;8969;48.576;12.580;2023-02-26T05:43:45;-1.10;99.90
17701;DHT22;8969;48.576;12.580;2023-02-26T05:46:13;-1.20;99.90
17701;DHT22;8969;48.576;12.580;2023-02-26T05:48:43;-1.20;99.90
17701;DHT22;8969;48.576;12.580;2023-02-26T05:51:11;-1.10;99.90
17701;DHT22;8969;48.576;12.580;2023-02-26T05:53:40;-1.00;99.90
17701;DHT22;8969;48.576;12.580;2023-02-26T05:56:08;-1.00;99.90
17701;DHT22;8969;48.576;12.580;2023-02-26T05:58:37;-0.90;99.90
17701;DHT22;8969;48.576;12.580;2023-02-26T06:01:05;-0.90;99.90
17701;DHT22;8969;48.576;12.580;2023-02-26T06:03:37;-1.00;99.90
17701;DHT22;8969;48.576;12.580;2023-02-26T06:06:11;-0.90;99.90
17701;DHT22;8969;48.576;12.580;2023-02-26T06:08:40;-0.80;99.90
17701;DHT22;8969;48.576;12.580;2023-02-26T06:11:09;-0.80;99.90
17701;DHT22;8969;48.576;12.580;2023-02-26T06:13:37;-0.90;99.90
17701;DHT22;8969;48.576;12.580;2023-02-26T06:16:06;-0.90;99.90
17701;DHT22;8969;48.576;12.580;2023-02-26T06:18:34;-0.90;99.90
17701;DHT22;8969;48.576;12.580;2023-02-26T06:21:03;-0.80;99.90
17701;DHT22;8969;48.576;12.580;2023-02-26T06:23:33;-0.70;99.90
17701;DHT22;8969;48.576;12.580;2023-02-26T06:26:01;-0.70;99.90
17701;DHT22;8969;48.576;12.580;2023-02-26T06:28:29;-0.70;99.90
17701;DHT22;8969;48.576;12.580;2023-02-26T06:30:58;-0.70;99.90
17701;DHT22;8969;48.576;12.580;2023-02-26T06:33:26;-0.70;99.90
17701;DHT22;8969;48.576;12.580;2023-02-26T06:35:56;-0.60;99.90
17701;DHT22;8969;48.576;12.580;2023-02-26T06:38:26;-0.70;99.90
17701;DHT22;8969;48.576;12.580;2023-02-26T06:40:58;-0.60;99.90
17701;DHT22;8969;48.576;12.580;2023-02-26T06:43:27;-0.60;99.90
17701;DHT22;8969;48.576;12.580;2023-02-26T06:45:57;-0.50;99.90
17701;DHT22;8969;48.576;12.580;2023-02-26T06:48:25;-0.50;99.90
17701;DHT22;8969;48.576;12.580;2023-02-26T06:50:53;-0.50;99.90
17701;DHT22;8969;48.576;12.580;2023-02-26T06:53:21;-0.50;99.90
17701;DHT22;8969;48.576;12.580;2023-02-26T06:55:51;-0.50;99.90
17701;DHT22;8969;48.576;12.580;2023-02-26T06:58:22;-0.40;99.90
17701;DHT22;8969;48.576;12.580;2023-02-26T07:00:51;-0.50;99.90
17701;DHT22;8969;48.576;12.580;2023-02-26T07:03:20;-0.30;99.90
17701;DHT22;8969;48.576;12.580;2023-02-26T07:05:49;-0.30;99.90
17701;DHT22;8969;48.576;12.580;2023-02-26T07:08:17;-0.30;99.90
17701;DHT22;8969;48.576;12.580;2023-02-26T07:10:46;-0.20;99.90
17701;DHT22;8969;48.576;12.580;2023-02-26T07:13:15;-0.20;99.90
17701;DHT22;8969;48.576;12.580;2023-02-26T07:15:45;-0.20;99.90
17701;DHT22;8969;48.576;12.580;2023-02-26T07:18:14;-0.20;99.90
17701;DHT22;8969;48.576;12.580;2023-02-26T07:21:01;-0.10;99.90
17701;DHT22;8969;48.576;12.580;2023-02-26T07:23:29;-0.10;99.90
17701;DHT22;8969;48.576;12.580;2023-02-26T07:25:58;0.00;99.90
17701;DHT22;8969;48.576;12.580;2023-02-26T07:28:26;0.00;99.90
17701;DHT22;8969;48.576;12.580;2023-02-26T07:30:56;0.10;99.90
17701;DHT22;8969;48.576;12.580;2023-02-26T07:33:25;0.00;99.90
17701;DHT22;8969;48.576;12.580;2023-02-26T07:35:54;0.00;99.90
17701;DHT22;8969;48.576;12.580;2023-02-26T07:38:22;0.00;99.90
17701;DHT22;8969;48.576;12.580;2023-02-26T07:40:53;0.10;99.90
17701;DHT22;8969;48.576;12.580;2023-02-26T07:43:21;0.10;99.90
17701;DHT22;8969;48.576;12.580;2023-02-26T07:45:49;0.20;99.90
17701;DHT22;8969;48.576;12.580;2023-02-26T07:48:19;0.20;99.90
17701;DHT22;8969;48.576;12.580;2023-02-26T07:50:50;0.40;99.90
17701;DHT22;8969;48.576;12.580;2023-02-26T07:53:19;0.50;99.90
17701;DHT22;8969;48.576;12.580;2023-02-26T07:55:47;0.50;99.90
17701;DHT22;8969;48.576;12.580;2023-02-26T07:58:16;0.60;99.90
17701;DHT22;8969;48.576;12.580;2023-02-26T08:00:45;0.60;99.90
17701;DHT22;8969;48.576;12.580;2023-02-26T08:03:36;0.60;99.90
17701;DHT22;8969;48.576;12.580;2023-02-26T08:06:05;0.60;99.90
17701;DHT22;8969;48.576;12.580;2023-02-26T08:08:35;0.60;99.90
17701;DHT22;8969;48.576;12.580;2023-02-26T08:11:03;0.60;99.90
17701;DHT22;8969;48.576;12.580;2023-02-26T08:13:31;0.70;99.90
17701;DHT22;8969;48.576;12.580;2023-02-26T08:16:00;0.70;99.90
17701;DHT22;8969;48.576;12.580;2023-02-26T08:18:28;0.80;99.90
17701;DHT22;8969;48.576;12.580;2023-02-26T08:20:58;0.70;99.90
17701;DHT22;8969;48.576;12.580;2023-02-26T08:23:26;0.70;99.90
17701;DHT22;8969;48.576;12.580;2023-02-26T08:25:59;0.70;99.90
17701;DHT22;8969;48.576;12.580;2023-02-26T08:28:28;0.60;99.90
17701;DHT22;8969;48.576;12.580;2023-02-26T08:30:56;0.80;99.90
17701;DHT22;8969;48.576;12.580;2023-02-26T08:33:25;0.70;99.90
17701;DHT22;8969;48.576;12.580;2023-02-26T08:35:54;0.90;99.90
17701;DHT22;8969;48.576;12.580;2023-02-26T08:38:26;0.90;99.90
17701;DHT22;8969;48.576;12.580;2023-02-26T08:40:55;0.90;99.90
17701;DHT22;8969;48.576;12.580;2023-02-26T08:43:23;0.90;99.90
17701;DHT22;8969;48.576;12.580;2023-02-26T08:45:53;0.80;99.90
17701;DHT22;8969;48.576;12.580;2023-02-26T08:48:22;0.90;99.90
17701;DHT22;8969;48.576;12.580;2023-02-26T08:50:50;0.70;99.90
17701;DHT22;8969;48.576;12.580;2023-02-26T08:53:18;0.80;99.90
17701;DHT22;8969;48.576;12.580;2023-02-26T08:55:49;0.80;99.90
17701;DHT22;8969;48.576;12.580;2023-02-26T08:58:20;0.90;99.90
17701;DHT22;8969;48.576;12.580;2023-02-26T09:00:51;0.80;99.90
17701;DHT22;8969;48.576;12.580;2023-02-26T09:03:19;0.80;99.90
17701;DHT22;8969;48.576;12.580;2023-02-26T09:05:47;0.90;99.90
17701;DHT22;8969;48.576;12.580;2023-02-26T09:08:15;0.90;99.90
17701;DHT22;8969;48.576;12.580;2023-02-26T09:10:44;1.00;99.90
17701;DHT22;8969;48.576;12.580;2023-02-26T09:13:14;1.10;99.90
17701;DHT22;8969;48.576;12.580;2023-02-26T09:15:43;1.20;99.90
17701;DHT22;8969;48.576;12.580;2023-02-26T09:18:11;1.20;99.90
17701;DHT22;8969;48.576;12.580;2023-02-26T09:20:43;1.30;99.90
17701;DHT22;8969;48.576;12.580;2023-02-26T09:23:11;1.40;99.90
17701;DHT22;8969;48.576;12.580;2023-02-26T09:25:39;1.30;99.90
17701;DHT22;8969;48.576;12.580;2023-02-26T09:28:09;1.20;99.90
17701;DHT22;8969;48.576;12.580;2023-02-26T09:30:40;1.30;99.90
17701;DHT22;8969;48.576;12.580;2023-02-26T09:33:08;1.30;99.90
17701;DHT22;8969;48.576;12.580;2023-02-26T09:35:36;1.20;99.90
17701;DHT22;8969;48.576;12.580;2023-02-26T09:38:05;1.30;99.90
17701;DHT22;8969;48.576;12.580;2023-02-26T09:40:42;1.20;99.90
17701;DHT22;8969;48.576;12.580;2023-02-26T09:43:32;1.20;99.90
17701;DHT22;8969;48.576;12.580;2023-02-26T09:46:07;1.30;99.90
17701;DHT22;8969;48.576;12.580;2023-02-26T09:48:39;1.50;99.90
17701;DHT22;8969;48.576;12.580;2023-02-26T09:51:14;1.70;99.90
17701;DHT22;8969;48.576;12.580;2023-02-26T09:53:47;1.80;99.90
17701;DHT22;8969;48.576;12.580;2023-02-26T09:56:18;2.00;99.90
17701;DHT22;8969;48.576;12.580;2023-02-26T09:58:49;2.20;99.90
17701;DHT22;8969;48.576;12.580;2023-02-26T10:01:24;2.30;99.90
17701;DHT22;8969;48.576;12.580;2023-02-26T10:04:03;2.50;99.90
17701;DHT22;8969;48.576;12.580;2023-02-26T10:06:40;2.60;99.90
17701;DHT22;8969;48.576;12.580;2023-02-26T10:09:43;2.70;99.90
17701;DHT22;8969;48.576;12.580;2023-02-26T10:12:17;2.50;99.90
17701;DHT22;8969;48.576;12.580;2023-02-26T10:14:50;2.60;99.90
17701;DHT22;8969;48.576;12.580;2023-02-26T10:17:27;2.50;99.90
17701;DHT22;8969;48.576;12.580;2023-02-26T10:20:00;2.60;99.90
17701;DHT22;8969;48.576;12.580;2023-02-26T10:22:35;2.60;99.90
17701;DHT22;8969;48.576;12.580;2023-02-26T10:25:12;2.80;99.90
17701;DHT22;8969;48.576;12.580;2023-02-26T10:27:50;3.00;99.90
17701;DHT22;8969;48.576;12.580;2023-02-26T10:30:27;3.10;99.90
17701;DHT22;8969;48.576;12.580;2023-02-26T10:33:02;2.90;99.90
17701;DHT22;8969;48.576;12.580;2023-02-26T10:35:38;2.90;99.90
17701;DHT22;8969;48.576;12.580;2023-02-26T10:38:11;2.90;99.90
17701;DHT22;8969;48.576;12.580;2023-02-26T10:40:48;2.90;99.90
17701;DHT22;8969;48.576;12.580;2023-02-26T10:43:21;3.00;99.90
17701;DHT22;8969;48.576;12.580;2023-02-26T10:46:02;2.80;99.90
17701;DHT22;8969;48.576;12.580;2023-02-26T10:48:45;2.70;99.90
17701;DHT22;8969;48.576;12.580;2023-02-26T10:51:21;2.80;99.90
17701;DHT22;8969;48.576;12.580;2023-02-26T10:53:53;2.90;99.90
17701;DHT22;8969;48.576;12.580;2023-02-26T10:56:25;3.20;99.90
17701;DHT22;8969;48.576;12.580;2023-02-26T10:58:55;3.50;99.90
17701;DHT22;8969;48.576;12.580;2023-02-26T11:01:26;2.90;99.90
17701;DHT22;8969;48.576;12.580;2023-02-26T11:03:59;2.80;99.90
17701;DHT22;8969;48.576;12.580;2023-02-26T11:06:30;2.80;99.90
17701;DHT22;8969;48.576;12.580;2023-02-26T11:09:00;2.80;99.90
17701;DHT22;8969;48.576;12.580;2023-02-26T11:11:40;2.90;99.90
17701;DHT22;8969;48.576;12.580;2023-02-26T11:14:10;3.10;99.90
17701;DHT22;8969;48.576;12.580;2023-02-26T11:16:46;3.20;99.90
17701;DHT22;8969;48.576;12.580;2023-02-26T11:19:16;3.20;99.90
17701;DHT22;8969;48.576;12.580;2023-02-26T11:21:48;3.30;99.90
17701;DHT22;8969;48.576;12.580;2023-02-26T11:24:23;3.10;99.90
17701;DHT22;8969;48.576;12.580;2023-02-26T11:26:54;3.40;99.90
17701;DHT22;8969;48.576;12.580;2023-02-26T11:29:24;3.50;99.90
17701;DHT22;8969;48.576;12.580;2023-02-26T11:31:54;3.40;99.90
17701;DHT22;8969;48.576;12.580;2023-02-26T11:34:25;3.20;99.90
17701;DHT22;8969;48.576;12.580;2023-02-26T11:36:57;2.90;99.90
17701;DHT22;8969;48.576;12.580;2023-02-26T11:39:27;2.70;99.90
17701;DHT22;8969;48.576;12.580;2023-02-26T11:41:57;2.40;99.90
17701;DHT22;8969;48.576;12.580;2023-02-26T11:44:34;2.20;99.90
17701;DHT22;8969;48.576;12.580;2023-02-26T11:47:06;2.50;99.90
17701;DHT22;8969;48.576;12.580;2023-02-26T11:49:41;2.30;99.90
17701;DHT22;8969;48.576;12.580;2023-02-26T11:52:20;2.60;99.90
17701;DHT22;8969;48.576;12.580;2023-02-26T11:54:56;2.70;99.90
17701;DHT22;8969;48.576;12.580;2023-02-26T11:57:28;2.90;99.90
17701;DHT22;8969;48.576;12.580;2023-02-26T12:00:00;3.10;99.90
17701;DHT22;8969;48.576;12.580;2023-02-26T12:02:45;3.20;99.90
17701;DHT22;8969;48.576;12.580;2023-02-26T12:05:17;3.40;99.90
17701;DHT22;8969;48.576;12.580;2023-02-26T12:07:45;3.40;99.90
17701;DHT22;8969;48.576;12.580;2023-02-26T12:10:17;3.50;99.90
17701;DHT22;8969;48.576;12.580;2023-02-26T12:13:00;3.20;99.90
17701;DHT22;8969;48.576;12.580;2023-02-26T12:15:38;3.20;99.90
17701;DHT22;8969;48.576;12.580;2023-02-26T12:18:26;3.10;99.90
17701;DHT22;8969;48.576;12.580;2023-02-26T12:21:08;2.90;99.90
17701;DHT22;8969;48.576;12.580;2023-02-26T12:23:57;2.80;99.90
17701;DHT22;8969;48.576;12.580;2023-02-26T12:26:29;2.70;99.90
17701;DHT22;8969;48.576;12.580;2023-02-26T12:29:17;2.60;99.90
17701;DHT22;8969;48.576;12.580;2023-02-26T12:32:11;2.50;99.90
17701;DHT22;8969;48.576;12.580;2023-02-26T12:37:48;3.00;99.90
17701;DHT22;8969;48.576;12.580;2023-02-26T12:40:31;3.30;99.90
17701;DHT22;8969;48.576;12.580;2023-02-26T12:43:09;3.60;99.90
17701;DHT22;8969;48.576;12.580;2023-02-26T12:45:44;3.90;99.90
17701;DHT22;8969;48.576;12.580;2023-02-26T12:48:33;4.00;99.90
17701;DHT22;8969;48.576;12.580;2023-02-26T12:51:14;3.90;99.90
17701;DHT22;8969;48.576;12.580;2023-02-26T12:53:55;3.60;99.90
17701;DHT22;8969;48.576;12.580;2023-02-26T12:56:42;3.40;99.90
17701;DHT22;8969;48.576;12.580;2023-02-26T12:59:35;3.20;99.90
17701;DHT22;8969;48.576;12.580;2023-02-26T13:02:49;3.00;99.90
17701;DHT22;8969;48.576;12.580;2023-02-26T13:05:34;2.80;99.90
17701;DHT22;8969;48.576;12.580;2023-02-26T13:08:13;2.80;99.90
17701;DHT22;8969;48.576;12.580;2023-02-26T13:10:53;3.00;99.90
17701;DHT22;8969;48.576;12.580;2023-02-26T13:13:51;3.30;99.90
17701;DHT22;8969;48.576;12.580;2023-02-26T13:16:33;3.70;99.90
17701;DHT22;8969;48.576;12.580;2023-02-26T13:19:16;4.00;99.90
17701;DHT22;8969;48.576;12.580;2023-02-26T13:21:50;4.00;99.90
17701;DHT22;8969;48.576;12.580;2023-02-26T13:24:24;3.40;99.90
17701;DHT22;8969;48.576;12.580;2023-02-26T13:26:55;3.20;99.90
17701;DHT22;8969;48.576;12.580;2023-02-26T13:29:26;3.10;99.90
17701;DHT22;8969;48.576;12.580;2023-02-26T13:31:59;3.00;99.90
17701;DHT22;8969;48.576;12.580;2023-02-26T13:34:37;3.00;99.90
17701;DHT22;8969;48.576;12.580;2023-02-26T13:37:18;2.90;99.90
17701;DHT22;8969;48.576;12.580;2023-02-26T13:39:56;2.90;99.90
17701;DHT22;8969;48.576;12.580;2023-02-26T13:42:35;3.10;99.90
17701;DHT22;8969;48.576;12.580;2023-02-26T13:45:22;3.40;99.90
17701;DHT22;8969;48.576;12.580;2023-02-26T13:48:12;3.70;99.90
17701;DHT22;8969;48.576;12.580;2023-02-26T13:50:52;3.90;99.90
17701;DHT22;8969;48.576;12.580;2023-02-26T13:53:50;3.70;99.90
17701;DHT22;8969;48.576;12.580;2023-02-26T13:56:52;3.50;99.90
17701;DHT22;8969;48.576;12.580;2023-02-26T13:59:54;3.10;99.90
17701;DHT22;8969;48.576;12.580;2023-02-26T14:05:34;2.90;99.90
17701;DHT22;8969;48.576;12.580;2023-02-26T14:08:43;2.70;99.90
17701;DHT22;8969;48.576;12.580;2023-02-26T14:11:43;2.70;99.90
17701;DHT22;8969;48.576;12.580;2023-02-26T14:14:29;2.50;99.90
17701;DHT22;8969;48.576;12.580;2023-02-26T14:17:28;2.60;99.90
17701;DHT22;8969;48.576;12.580;2023-02-26T14:20:17;2.50;99.90
17701;DHT22;8969;48.576;12.580;2023-02-26T14:23:10;2.50;99.90
17701;DHT22;8969;48.576;12.580;2023-02-26T14:25:41;2.50;99.90
17701;DHT22;8969;48.576;12.580;2023-02-26T14:28:20;2.40;99.90
17701;DHT22;8969;48.576;12.580;2023-02-26T14:31:06;2.40;99.90
17701;DHT22;8969;48.576;12.580;2023-02-26T14:33:41;2.30;99.90
17701;DHT22;8969;48.576;12.580;2023-02-26T14:36:16;2.20;99.90
17701;DHT22;8969;48.576;12.580;2023-02-26T14:38:47;2.20;99.90
17701;DHT22;8969;48.576;12.580;2023-02-26T14:41:24;2.10;99.90
17701;DHT22;8969;48.576;12.580;2023-02-26T14:43:59;2.20;99.90
17701;DHT22;8969;48.576;12.580;2023-02-26T14:46:28;2.30;99.90
17701;DHT22;8969;48.576;12.580;2023-02-26T14:48:58;2.50;99.90
17701;DHT22;8969;48.576;12.580;2023-02-26T14:51:36;2.30;99.90
17701;DHT22;8969;48.576;12.580;2023-02-26T14:54:19;2.40;99.90
17701;DHT22;8969;48.576;12.580;2023-02-26T14:57:02;2.40;99.90
17701;DHT22;8969;48.576;12.580;2023-02-26T14:59:43;2.50;99.90
17701;DHT22;8969;48.576;12.580;2023-02-26T15:02:22;2.50;99.90
17701;DHT22;8969;48.576;12.580;2023-02-26T15:05:40;2.50;99.90
17701;DHT22;8969;48.576;12.580;2023-02-26T15:08:46;2.50;99.90
17701;DHT22;8969;48.576;12.580;2023-02-26T15:14:38;2.50;99.90
17701;DHT22;8969;48.576;12.580;2023-02-26T15:17:21;2.70;99.90
17701;DHT22;8969;48.576;12.580;2023-02-26T15:20:07;2.70;99.90
17701;DHT22;8969;48.576;12.580;2023-02-26T15:22:58;2.70;99.90
17701;DHT22;8969;48.576;12.580;2023-02-26T15:25:34;2.60;99.90
17701;DHT22;8969;48.576;12.580;2023-02-26T15:28:10;2.50;99.90
17701;DHT22;8969;48.576;12.580;2023-02-26T15:30:46;2.40;99.90
17701;DHT22;8969;48.576;12.580;2023-02-26T15:33:18;2.20;99.90
17701;DHT22;8969;48.576;12.580;2023-02-26T15:35:48;2.10;99.90
17701;DHT22;8969;48.576;12.580;2023-02-26T15:38:24;2.10;99.90
17701;DHT22;8969;48.576;12.580;2023-02-26T15:40:59;1.90;99.90
17701;DHT22;8969;48.576;12.580;2023-02-26T15:43:33;1.90;99.90
17701;DHT22;8969;48.576;12.580;2023-02-26T15:46:05;1.90;99.90
17701;DHT22;8969;48.576;12.580;2023-02-26T15:48:35;1.90;99.90
17701;DHT22;8969;48.576;12.580;2023-02-26T15:51:08;1.90;99.90
17701;DHT22;8969;48.576;12.580;2023-02-26T15:53:41;1.90;99.90
17701;DHT22;8969;48.576;12.580;2023-02-26T15:56:12;1.80;99.90
17701;DHT22;8969;48.576;12.580;2023-02-26T15:58:50;1.70;99.90
17701;DHT22;8969;48.576;12.580;2023-02-26T16:01:22;1.70;99.90
17701;DHT22;8969;48.576;12.580;2023-02-26T16:03:51;1.70;99.90
17701;DHT22;8969;48.576;12.580;2023-02-26T16:06:24;1.80;99.90
17701;DHT22;8969;48.576;12.580;2023-02-26T16:08:56;1.70;99.90
17701;DHT22;8969;48.576;12.580;2023-02-26T16:11:28;1.80;99.90
17701;DHT22;8969;48.576;12.580;2023-02-26T16:13:59;1.70;99.90
17701;DHT22;8969;48.576;12.580;2023-02-26T16:16:40;1.80;99.90
17701;DHT22;8969;48.576;12.580;2023-02-26T16:19:13;1.70;99.90
17701;DHT22;8969;48.576;12.580;2023-02-26T16:21:46;1.70;99.90
17701;DHT22;8969;48.576;12.580;2023-02-26T16:24:21;1.60;99.90
17701;DHT22;8969;48.576;12.580;2023-02-26T16:26:53;1.60;99.90
17701;DHT22;8969;48.576;12.580;2023-02-26T16:29:25;1.50;99.90
17701;DHT22;8969;48.576;12.580;2023-02-26T16:31:57;1.50;99.90
17701;DHT22;8969;48.576;12.580;2023-02-26T16:34:35;1.40;99.90
17701;DHT22;8969;48.576;12.580;2023-02-26T16:37:22;1.40;99.90
17701;DHT22;8969;48.576;12.580;2023-02-26T16:40:04;1.30;99.90
17701;DHT22;8969;48.576;12.580;2023-02-26T16:42:44;1.30;99.90
17701;DHT22;8969;48.576;12.580;2023-02-26T16:45:24;1.20;99.90